Terminal Aerodrome Forecast
Issued by NWS Huntsville, AL

Home | Current Version | Previous Version | Text Only | Print | Product List | Glossary On
Versions: 1 2 3 4 5 6 7 8 9 10 11 12 13 14 15 16 17 18 19 20 21 22 23 24 25 26 27 28 29 30 31 32 33 34 35 36 37 38 39 40
328
FTUS44 KHUN 230533
TAFHSV
TAF
KHSV 230533Z 2306/2406 30008KT P6SM -RA BKN008 OVC015
     FM231000 32010G18KT P6SM VCSH BKN015 OVC030
     FM231400 34012G22KT P6SM BKN015 OVC030
     FM232200 32010KT P6SM OVC015=

USA.gov is the U.S. government's official web portal to all federal, state and local government web resources and services.